sensor_id;sensor_type;location;lat;lon;timestamp;P1;durP1;ratioP1;P2;durP2;ratioP2
15526;SDS011;7865;50.918;4.510;2023-05-15T00:02:56;93.03;;;47.07;;
15526;SDS011;7865;50.918;4.510;2023-05-15T00:07:58;92.50;;;48.77;;
15526;SDS011;7865;50.918;4.510;2023-05-15T00:12:59;101.10;;;51.40;;
15526;SDS011;7865;50.918;4.510;2023-05-15T00:18:01;97.13;;;49.80;;
15526;SDS011;7865;50.918;4.510;2023-05-15T00:23:02;100.73;;;51.30;;
15526;SDS011;7865;50.918;4.510;2023-05-15T00:28:04;110.90;;;53.33;;
15526;SDS011;7865;50.918;4.510;2023-05-15T00:33:06;114.17;;;55.27;;
15526;SDS011;7865;50.918;4.510;2023-05-15T00:38:07;107.80;;;53.27;;
15526;SDS011;7865;50.918;4.510;2023-05-15T00:43:11;107.93;;;55.73;;
15526;SDS011;7865;50.918;4.510;2023-05-15T00:48:12;101.40;;;52.20;;
15526;SDS011;7865;50.918;4.510;2023-05-15T00:53:14;105.23;;;54.60;;
15526;SDS011;7865;50.918;4.510;2023-05-15T00:58:16;102.40;;;53.03;;
15526;SDS011;7865;50.918;4.510;2023-05-15T01:03:21;108.27;;;53.37;;
15526;SDS011;7865;50.918;4.510;2023-05-15T01:08:31;103.37;;;51.13;;
15526;SDS011;7865;50.918;4.510;2023-05-15T01:13:35;94.50;;;49.83;;
15526;SDS011;7865;50.918;4.510;2023-05-15T01:18:38;92.63;;;50.87;;
15526;SDS011;7865;50.918;4.510;2023-05-15T01:34:59;100.17;;;52.13;;
15526;SDS011;7865;50.918;4.510;2023-05-15T01:40:06;100.97;;;52.10;;
15526;SDS011;7865;50.918;4.510;2023-05-15T01:45:10;97.40;;;52.60;;
15526;SDS011;7865;50.918;4.510;2023-05-15T01:50:12;90.40;;;49.53;;
15526;SDS011;7865;50.918;4.510;2023-05-15T01:55:15;89.87;;;47.70;;
15526;SDS011;7865;50.918;4.510;2023-05-15T02:00:18;99.70;;;50.23;;
15526;SDS011;7865;50.918;4.510;2023-05-15T02:05:22;86.20;;;48.70;;
15526;SDS011;7865;50.918;4.510;2023-05-15T02:10:27;84.70;;;45.43;;
15526;SDS011;7865;50.918;4.510;2023-05-15T02:15:29;90.33;;;49.83;;
15526;SDS011;7865;50.918;4.510;2023-05-15T02:20:31;89.93;;;49.73;;
15526;SDS011;7865;50.918;4.510;2023-05-15T02:31:22;100.30;;;52.90;;
15526;SDS011;7865;50.918;4.510;2023-05-15T02:36:38;102.87;;;53.70;;
15526;SDS011;7865;50.918;4.510;2023-05-15T02:41:42;114.50;;;56.77;;
15526;SDS011;7865;50.918;4.510;2023-05-15T02:46:46;132.93;;;60.03;;
15526;SDS011;7865;50.918;4.510;2023-05-15T02:51:48;128.40;;;61.67;;
15526;SDS011;7865;50.918;4.510;2023-05-15T02:56:50;139.37;;;62.90;;
15526;SDS011;7865;50.918;4.510;2023-05-15T03:01:52;151.80;;;69.90;;
15526;SDS011;7865;50.918;4.510;2023-05-15T03:06:53;160.63;;;67.07;;
15526;SDS011;7865;50.918;4.510;2023-05-15T03:11:54;159.90;;;73.13;;
15526;SDS011;7865;50.918;4.510;2023-05-15T03:16:55;157.57;;;68.70;;
15526;SDS011;7865;50.918;4.510;2023-05-15T03:21:57;136.33;;;63.70;;
15526;SDS011;7865;50.918;4.510;2023-05-15T03:26:58;147.10;;;67.17;;
15526;SDS011;7865;50.918;4.510;2023-05-15T03:32:00;150.67;;;66.97;;
15526;SDS011;7865;50.918;4.510;2023-05-15T03:37:01;150.60;;;66.43;;
15526;SDS011;7865;50.918;4.510;2023-05-15T03:42:03;101.33;;;49.57;;
15526;SDS011;7865;50.918;4.510;2023-05-15T03:47:04;100.13;;;49.97;;
15526;SDS011;7865;50.918;4.510;2023-05-15T03:52:06;122.93;;;56.00;;
15526;SDS011;7865;50.918;4.510;2023-05-15T03:57:08;124.33;;;57.63;;
15526;SDS011;7865;50.918;4.510;2023-05-15T04:02:09;143.87;;;62.67;;
15526;SDS011;7865;50.918;4.510;2023-05-15T04:07:11;119.43;;;56.23;;
15526;SDS011;7865;50.918;4.510;2023-05-15T04:12:12;144.60;;;59.93;;
15526;SDS011;7865;50.918;4.510;2023-05-15T04:17:13;138.97;;;59.60;;
15526;SDS011;7865;50.918;4.510;2023-05-15T04:22:15;148.80;;;62.60;;
15526;SDS011;7865;50.918;4.510;2023-05-15T04:27:16;147.27;;;64.77;;
15526;SDS011;7865;50.918;4.510;2023-05-15T04:32:17;143.60;;;65.80;;
15526;SDS011;7865;50.918;4.510;2023-05-15T04:37:19;161.27;;;68.27;;
15526;SDS011;7865;50.918;4.510;2023-05-15T04:42:20;187.80;;;73.93;;
15526;SDS011;7865;50.918;4.510;2023-05-15T04:47:21;256.90;;;96.93;;
15526;SDS011;7865;50.918;4.510;2023-05-15T04:52:23;295.63;;;109.43;;
15526;SDS011;7865;50.918;4.510;2023-05-15T04:57:24;279.07;;;102.67;;
15526;SDS011;7865;50.918;4.510;2023-05-15T05:02:26;270.30;;;99.80;;
15526;SDS011;7865;50.918;4.510;2023-05-15T05:07:28;216.23;;;77.30;;
15526;SDS011;7865;50.918;4.510;2023-05-15T05:12:29;208.30;;;80.87;;
15526;SDS011;7865;50.918;4.510;2023-05-15T05:17:30;202.83;;;73.00;;
15526;SDS011;7865;50.918;4.510;2023-05-15T05:22:32;179.47;;;69.33;;
15526;SDS011;7865;50.918;4.510;2023-05-15T05:27:33;179.73;;;72.20;;
15526;SDS011;7865;50.918;4.510;2023-05-15T05:32:34;145.07;;;59.90;;
15526;SDS011;7865;50.918;4.510;2023-05-15T05:37:36;154.53;;;62.53;;
15526;SDS011;7865;50.918;4.510;2023-05-15T05:42:40;148.57;;;60.97;;
15526;SDS011;7865;50.918;4.510;2023-05-15T05:47:42;150.13;;;59.73;;
15526;SDS011;7865;50.918;4.510;2023-05-15T05:52:43;120.47;;;49.60;;
15526;SDS011;7865;50.918;4.510;2023-05-15T05:57:44;121.57;;;50.83;;
15526;SDS011;7865;50.918;4.510;2023-05-15T06:02:46;131.20;;;55.00;;
15526;SDS011;7865;50.918;4.510;2023-05-15T06:07:48;126.90;;;53.60;;
15526;SDS011;7865;50.918;4.510;2023-05-15T06:12:49;150.60;;;60.93;;
15526;SDS011;7865;50.918;4.510;2023-05-15T06:17:50;120.17;;;48.03;;
15526;SDS011;7865;50.918;4.510;2023-05-15T06:22:52;110.73;;;46.47;;
15526;SDS011;7865;50.918;4.510;2023-05-15T06:27:53;121.37;;;51.03;;
15526;SDS011;7865;50.918;4.510;2023-05-15T06:32:55;111.93;;;46.03;;
15526;SDS011;7865;50.918;4.510;2023-05-15T06:37:57;129.10;;;55.03;;
15526;SDS011;7865;50.918;4.510;2023-05-15T06:42:59;154.30;;;60.60;;
15526;SDS011;7865;50.918;4.510;2023-05-15T06:48:01;145.40;;;58.37;;
15526;SDS011;7865;50.918;4.510;2023-05-15T06:53:02;141.07;;;58.73;;
15526;SDS011;7865;50.918;4.510;2023-05-15T06:58:04;133.90;;;57.83;;
15526;SDS011;7865;50.918;4.510;2023-05-15T07:03:05;122.40;;;54.50;;
15526;SDS011;7865;50.918;4.510;2023-05-15T07:08:07;117.47;;;53.07;;
15526;SDS011;7865;50.918;4.510;2023-05-15T07:13:08;104.90;;;50.57;;
15526;SDS011;7865;50.918;4.510;2023-05-15T07:18:10;104.40;;;51.07;;
15526;SDS011;7865;50.918;4.510;2023-05-15T07:23:11;108.73;;;51.30;;
15526;SDS011;7865;50.918;4.510;2023-05-15T07:28:12;103.37;;;50.20;;
15526;SDS011;7865;50.918;4.510;2023-05-15T07:33:14;95.40;;;48.27;;
15526;SDS011;7865;50.918;4.510;2023-05-15T07:38:15;94.87;;;48.80;;
15526;SDS011;7865;50.918;4.510;2023-05-15T07:43:17;89.87;;;48.23;;
15526;SDS011;7865;50.918;4.510;2023-05-15T07:48:18;82.83;;;47.03;;
15526;SDS011;7865;50.918;4.510;2023-05-15T07:53:20;84.80;;;47.87;;
15526;SDS011;7865;50.918;4.510;2023-05-15T07:58:21;76.43;;;45.10;;
15526;SDS011;7865;50.918;4.510;2023-05-15T08:03:23;78.85;;;45.85;;
15526;SDS011;7865;50.918;4.510;2023-05-15T08:08:24;76.63;;;43.30;;
15526;SDS011;7865;50.918;4.510;2023-05-15T08:13:26;73.80;;;44.63;;
15526;SDS011;7865;50.918;4.510;2023-05-15T08:18:27;58.50;;;36.47;;
15526;SDS011;7865;50.918;4.510;2023-05-15T08:23:28;63.40;;;39.83;;
15526;SDS011;7865;50.918;4.510;2023-05-15T08:28:30;62.88;;;36.58;;
15526;SDS011;7865;50.918;4.510;2023-05-15T08:33:32;63.30;;;41.30;;
15526;SDS011;7865;50.918;4.510;2023-05-15T08:38:33;58.22;;;40.22;;
15526;SDS011;7865;50.918;4.510;2023-05-15T08:43:35;58.95;;;39.05;;
15526;SDS011;7865;50.918;4.510;2023-05-15T08:48:39;52.30;;;36.33;;
15526;SDS011;7865;50.918;4.510;2023-05-15T08:53:41;48.65;;;35.60;;
15526;SDS011;7865;50.918;4.510;2023-05-15T08:58:43;46.83;;;34.35;;
15526;SDS011;7865;50.918;4.510;2023-05-15T09:03:45;49.47;;;31.90;;
15526;SDS011;7865;50.918;4.510;2023-05-15T09:08:47;48.05;;;32.40;;
15526;SDS011;7865;50.918;4.510;2023-05-15T09:13:49;48.70;;;35.72;;
15526;SDS011;7865;50.918;4.510;2023-05-15T09:18:51;50.13;;;35.78;;
15526;SDS011;7865;50.918;4.510;2023-05-15T09:29:24;51.03;;;35.50;;
15526;SDS011;7865;50.918;4.510;2023-05-15T09:34:28;48.15;;;36.45;;
15526;SDS011;7865;50.918;4.510;2023-05-15T09:39:31;44.03;;;33.30;;
15526;SDS011;7865;50.918;4.510;2023-05-15T09:44:33;46.33;;;35.28;;
15526;SDS011;7865;50.918;4.510;2023-05-15T09:49:35;42.78;;;32.10;;
15526;SDS011;7865;50.918;4.510;2023-05-15T09:54:37;39.13;;;28.25;;
15526;SDS011;7865;50.918;4.510;2023-05-15T09:59:42;40.72;;;31.75;;
15526;SDS011;7865;50.918;4.510;2023-05-15T10:04:45;43.03;;;31.50;;
15526;SDS011;7865;50.918;4.510;2023-05-15T10:09:54;44.83;;;33.25;;
15526;SDS011;7865;50.918;4.510;2023-05-15T10:14:55;37.28;;;28.88;;
15526;SDS011;7865;50.918;4.510;2023-05-15T10:19:58;38.97;;;30.17;;
15526;SDS011;7865;50.918;4.510;2023-05-15T10:30:33;40.35;;;29.48;;
15526;SDS011;7865;50.918;4.510;2023-05-15T10:35:35;43.60;;;32.28;;
15526;SDS011;7865;50.918;4.510;2023-05-15T10:40:39;49.72;;;33.60;;
15526;SDS011;7865;50.918;4.510;2023-05-15T10:45:41;46.55;;;33.33;;
15526;SDS011;7865;50.918;4.510;2023-05-15T10:50:43;48.50;;;33.13;;
15526;SDS011;7865;50.918;4.510;2023-05-15T10:55:47;51.58;;;33.42;;
15526;SDS011;7865;50.918;4.510;2023-05-15T11:00:49;46.13;;;31.02;;
15526;SDS011;7865;50.918;4.510;2023-05-15T11:11:52;55.40;;;32.63;;
15526;SDS011;7865;50.918;4.510;2023-05-15T11:21:57;58.75;;;34.60;;
15526;SDS011;7865;50.918;4.510;2023-05-15T11:27:00;58.40;;;35.88;;
15526;SDS011;7865;50.918;4.510;2023-05-15T11:32:02;57.35;;;31.60;;
15526;SDS011;7865;50.918;4.510;2023-05-15T11:37:24;85.45;;;41.78;;
15526;SDS011;7865;50.918;4.510;2023-05-15T11:42:25;108.18;;;51.08;;
15526;SDS011;7865;50.918;4.510;2023-05-15T11:47:28;107.25;;;51.33;;
15526;SDS011;7865;50.918;4.510;2023-05-15T11:52:29;105.85;;;49.55;;
15526;SDS011;7865;50.918;4.510;2023-05-15T11:57:31;114.80;;;51.55;;
15526;SDS011;7865;50.918;4.510;2023-05-15T12:02:32;99.03;;;48.03;;
15526;SDS011;7865;50.918;4.510;2023-05-15T12:07:37;102.30;;;47.08;;
15526;SDS011;7865;50.918;4.510;2023-05-15T12:12:41;104.43;;;48.70;;
15526;SDS011;7865;50.918;4.510;2023-05-15T12:17:43;94.20;;;44.83;;
15526;SDS011;7865;50.918;4.510;2023-05-15T12:22:46;85.72;;;44.50;;
15526;SDS011;7865;50.918;4.510;2023-05-15T12:27:47;90.53;;;42.35;;
15526;SDS011;7865;50.918;4.510;2023-05-15T12:32:48;82.07;;;43.10;;
15526;SDS011;7865;50.918;4.510;2023-05-15T12:37:50;86.70;;;44.33;;
15526;SDS011;7865;50.918;4.510;2023-05-15T12:42:52;90.23;;;44.53;;
15526;SDS011;7865;50.918;4.510;2023-05-15T12:47:54;87.20;;;42.33;;
15526;SDS011;7865;50.918;4.510;2023-05-15T12:53:03;84.97;;;42.87;;
15526;SDS011;7865;50.918;4.510;2023-05-15T12:58:06;51.43;;;27.43;;
15526;SDS011;7865;50.918;4.510;2023-05-15T13:03:10;40.23;;;23.87;;
15526;SDS011;7865;50.918;4.510;2023-05-15T13:08:13;39.07;;;21.17;;
15526;SDS011;7865;50.918;4.510;2023-05-15T13:13:16;34.83;;;21.27;;
15526;SDS011;7865;50.918;4.510;2023-05-15T13:18:18;23.00;;;13.87;;
15526;SDS011;7865;50.918;4.510;2023-05-15T13:23:20;9.37;;;6.40;;
15526;SDS011;7865;50.918;4.510;2023-05-15T13:28:24;8.23;;;4.60;;
15526;SDS011;7865;50.918;4.510;2023-05-15T13:33:25;4.23;;;2.73;;
15526;SDS011;7865;50.918;4.510;2023-05-15T13:38:27;4.27;;;2.30;;
15526;SDS011;7865;50.918;4.510;2023-05-15T13:43:29;2.73;;;2.17;;
15526;SDS011;7865;50.918;4.510;2023-05-15T13:48:31;8.47;;;2.40;;
15526;SDS011;7865;50.918;4.510;2023-05-15T13:53:32;3.43;;;1.93;;
15526;SDS011;7865;50.918;4.510;2023-05-15T13:58:34;2.17;;;1.90;;
15526;SDS011;7865;50.918;4.510;2023-05-15T14:03:35;4.87;;;2.00;;
15526;SDS011;7865;50.918;4.510;2023-05-15T14:08:37;6.17;;;2.03;;
15526;SDS011;7865;50.918;4.510;2023-05-15T14:13:38;3.63;;;2.57;;
15526;SDS011;7865;50.918;4.510;2023-05-15T14:18:42;6.17;;;2.90;;
15526;SDS011;7865;50.918;4.510;2023-05-15T14:23:43;7.97;;;2.67;;
15526;SDS011;7865;50.918;4.510;2023-05-15T14:28:44;5.23;;;2.53;;
15526;SDS011;7865;50.918;4.510;2023-05-15T14:33:46;7.33;;;2.70;;
15526;SDS011;7865;50.918;4.510;2023-05-15T14:38:51;6.87;;;4.10;;
15526;SDS011;7865;50.918;4.510;2023-05-15T14:43:52;9.40;;;3.60;;
15526;SDS011;7865;50.918;4.510;2023-05-15T14:48:54;8.40;;;3.77;;
15526;SDS011;7865;50.918;4.510;2023-05-15T14:53:55;9.37;;;3.83;;
15526;SDS011;7865;50.918;4.510;2023-05-15T14:58:57;6.53;;;3.60;;
15526;SDS011;7865;50.918;4.510;2023-05-15T15:03:58;6.27;;;4.03;;
15526;SDS011;7865;50.918;4.510;2023-05-15T15:09:00;9.73;;;4.27;;
15526;SDS011;7865;50.918;4.510;2023-05-15T15:14:02;8.80;;;3.77;;
15526;SDS011;7865;50.918;4.510;2023-05-15T15:19:03;10.67;;;3.80;;
15526;SDS011;7865;50.918;4.510;2023-05-15T15:24:05;7.67;;;3.87;;
15526;SDS011;7865;50.918;4.510;2023-05-15T15:29:07;9.60;;;4.83;;
15526;SDS011;7865;50.918;4.510;2023-05-15T15:34:08;10.70;;;5.00;;
15526;SDS011;7865;50.918;4.510;2023-05-15T15:39:11;11.67;;;4.53;;
15526;SDS011;7865;50.918;4.510;2023-05-15T15:44:13;9.57;;;4.53;;
15526;SDS011;7865;50.918;4.510;2023-05-15T15:49:14;12.07;;;5.07;;
15526;SDS011;7865;50.918;4.510;2023-05-15T15:54:15;10.80;;;5.40;;
15526;SDS011;7865;50.918;4.510;2023-05-15T15:59:17;10.43;;;5.07;;
15526;SDS011;7865;50.918;4.510;2023-05-15T16:04:18;9.83;;;4.23;;
15526;SDS011;7865;50.918;4.510;2023-05-15T16:09:19;9.47;;;4.43;;
15526;SDS011;7865;50.918;4.510;2023-05-15T16:14:21;12.33;;;5.37;;
15526;SDS011;7865;50.918;4.510;2023-05-15T16:19:23;8.80;;;4.57;;
15526;SDS011;7865;50.918;4.510;2023-05-15T16:24:24;8.70;;;4.40;;
15526;SDS011;7865;50.918;4.510;2023-05-15T16:29:26;11.40;;;5.37;;
15526;SDS011;7865;50.918;4.510;2023-05-15T16:34:28;10.03;;;4.90;;
15526;SDS011;7865;50.918;4.510;2023-05-15T16:39:30;9.73;;;4.50;;
15526;SDS011;7865;50.918;4.510;2023-05-15T16:44:38;8.10;;;4.20;;
15526;SDS011;7865;50.918;4.510;2023-05-15T16:49:40;9.67;;;4.67;;
15526;SDS011;7865;50.918;4.510;2023-05-15T16:54:44;13.33;;;5.50;;
15526;SDS011;7865;50.918;4.510;2023-05-15T16:59:46;8.83;;;4.03;;
15526;SDS011;7865;50.918;4.510;2023-05-15T17:04:47;8.53;;;4.43;;
15526;SDS011;7865;50.918;4.510;2023-05-15T17:09:49;9.33;;;3.90;;
15526;SDS011;7865;50.918;4.510;2023-05-15T17:14:50;8.20;;;3.30;;
15526;SDS011;7865;50.918;4.510;2023-05-15T17:19:52;6.87;;;4.30;;
15526;SDS011;7865;50.918;4.510;2023-05-15T17:24:54;8.37;;;3.43;;
15526;SDS011;7865;50.918;4.510;2023-05-15T17:29:56;10.83;;;3.73;;
15526;SDS011;7865;50.918;4.510;2023-05-15T17:34:57;10.97;;;4.00;;
15526;SDS011;7865;50.918;4.510;2023-05-15T17:39:59;13.33;;;3.53;;
15526;SDS011;7865;50.918;4.510;2023-05-15T17:45:01;17.17;;;4.50;;
15526;SDS011;7865;50.918;4.510;2023-05-15T17:50:03;9.00;;;4.27;;
15526;SDS011;7865;50.918;4.510;2023-05-15T17:55:04;14.13;;;3.83;;
15526;SDS011;7865;50.918;4.510;2023-05-15T18:00:06;14.10;;;3.80;;
15526;SDS011;7865;50.918;4.510;2023-05-15T18:05:14;10.37;;;4.23;;
15526;SDS011;7865;50.918;4.510;2023-05-15T18:10:16;13.50;;;3.67;;
15526;SDS011;7865;50.918;4.510;2023-05-15T18:15:17;15.17;;;4.70;;
15526;SDS011;7865;50.918;4.510;2023-05-15T18:20:19;14.47;;;4.60;;
15526;SDS011;7865;50.918;4.510;2023-05-15T18:25:21;11.17;;;4.23;;
15526;SDS011;7865;50.918;4.510;2023-05-15T18:30:22;11.80;;;4.13;;
15526;SDS011;7865;50.918;4.510;2023-05-15T18:35:24;11.10;;;3.63;;
15526;SDS011;7865;50.918;4.510;2023-05-15T18:40:25;14.93;;;3.80;;
15526;SDS011;7865;50.918;4.510;2023-05-15T18:45:27;13.10;;;4.40;;
15526;SDS011;7865;50.918;4.510;2023-05-15T18:50:28;15.20;;;3.90;;
15526;SDS011;7865;50.918;4.510;2023-05-15T18:55:30;13.97;;;4.20;;
15526;SDS011;7865;50.918;4.510;2023-05-15T19:00:32;16.57;;;3.43;;
15526;SDS011;7865;50.918;4.510;2023-05-15T19:05:40;15.50;;;3.43;;
15526;SDS011;7865;50.918;4.510;2023-05-15T19:10:46;14.63;;;4.33;;
15526;SDS011;7865;50.918;4.510;2023-05-15T19:15:50;10.37;;;3.40;;
15526;SDS011;7865;50.918;4.510;2023-05-15T19:20:52;11.87;;;3.40;;
15526;SDS011;7865;50.918;4.510;2023-05-15T19:25:54;12.50;;;3.83;;
15526;SDS011;7865;50.918;4.510;2023-05-15T19:30:55;15.20;;;3.83;;
15526;SDS011;7865;50.918;4.510;2023-05-15T19:35:56;12.43;;;3.97;;
15526;SDS011;7865;50.918;4.510;2023-05-15T19:40:58;16.47;;;4.43;;
15526;SDS011;7865;50.918;4.510;2023-05-15T19:46:00;12.30;;;3.07;;
15526;SDS011;7865;50.918;4.510;2023-05-15T19:51:01;12.03;;;3.93;;
15526;SDS011;7865;50.918;4.510;2023-05-15T19:56:03;13.90;;;3.40;;
15526;SDS011;7865;50.918;4.510;2023-05-15T20:01:05;10.80;;;3.20;;
15526;SDS011;7865;50.918;4.510;2023-05-15T20:06:07;11.97;;;3.53;;
15526;SDS011;7865;50.918;4.510;2023-05-15T20:11:10;13.50;;;3.53;;
15526;SDS011;7865;50.918;4.510;2023-05-15T20:16:11;12.00;;;4.23;;
15526;SDS011;7865;50.918;4.510;2023-05-15T20:21:13;13.23;;;3.10;;
15526;SDS011;7865;50.918;4.510;2023-05-15T20:26:16;14.83;;;3.50;;
15526;SDS011;7865;50.918;4.510;2023-05-15T20:31:18;13.37;;;2.73;;
15526;SDS011;7865;50.918;4.510;2023-05-15T20:36:20;23.87;;;4.53;;
15526;SDS011;7865;50.918;4.510;2023-05-15T20:41:25;9.40;;;2.87;;
15526;SDS011;7865;50.918;4.510;2023-05-15T20:46:27;16.50;;;3.50;;
15526;SDS011;7865;50.918;4.510;2023-05-15T20:51:31;14.37;;;2.93;;
15526;SDS011;7865;50.918;4.510;2023-05-15T20:56:32;19.80;;;4.07;;
15526;SDS011;7865;50.918;4.510;2023-05-15T21:01:33;9.77;;;3.30;;
15526;SDS011;7865;50.918;4.510;2023-05-15T21:06:35;11.70;;;2.87;;
15526;SDS011;7865;50.918;4.510;2023-05-15T21:11:37;10.23;;;2.97;;
15526;SDS011;7865;50.918;4.510;2023-05-15T21:16:38;9.87;;;2.93;;
15526;SDS011;7865;50.918;4.510;2023-05-15T21:21:40;13.83;;;2.67;;
15526;SDS011;7865;50.918;4.510;2023-05-15T21:26:41;15.77;;;3.37;;
15526;SDS011;7865;50.918;4.510;2023-05-15T21:31:43;12.80;;;2.80;;
15526;SDS011;7865;50.918;4.510;2023-05-15T21:36:44;12.60;;;3.03;;
15526;SDS011;7865;50.918;4.510;2023-05-15T21:41:46;9.70;;;2.80;;
15526;SDS011;7865;50.918;4.510;2023-05-15T21:46:47;14.77;;;3.40;;
15526;SDS011;7865;50.918;4.510;2023-05-15T21:51:49;10.57;;;2.47;;
15526;SDS011;7865;50.918;4.510;2023-05-15T21:56:50;10.07;;;2.53;;
15526;SDS011;7865;50.918;4.510;2023-05-15T22:01:52;7.37;;;2.43;;
15526;SDS011;7865;50.918;4.510;2023-05-15T22:06:53;10.20;;;2.33;;
15526;SDS011;7865;50.918;4.510;2023-05-15T22:11:55;7.10;;;1.83;;
15526;SDS011;7865;50.918;4.510;2023-05-15T22:16:56;11.63;;;2.80;;
15526;SDS011;7865;50.918;4.510;2023-05-15T22:21:58;9.90;;;2.40;;
15526;SDS011;7865;50.918;4.510;2023-05-15T22:27:00;17.83;;;3.17;;
15526;SDS011;7865;50.918;4.510;2023-05-15T22:32:02;20.87;;;3.13;;
15526;SDS011;7865;50.918;4.510;2023-05-15T22:37:03;16.13;;;3.37;;
15526;SDS011;7865;50.918;4.510;2023-05-15T22:42:05;14.00;;;2.40;;
15526;SDS011;7865;50.918;4.510;2023-05-15T22:47:07;8.80;;;2.27;;
15526;SDS011;7865;50.918;4.510;2023-05-15T22:52:08;11.37;;;2.73;;
15526;SDS011;7865;50.918;4.510;2023-05-15T22:57:13;10.30;;;2.80;;
15526;SDS011;7865;50.918;4.510;2023-05-15T23:02:15;10.00;;;2.70;;
15526;SDS011;7865;50.918;4.510;2023-05-15T23:07:16;12.17;;;2.80;;
15526;SDS011;7865;50.918;4.510;2023-05-15T23:12:18;11.27;;;2.73;;
15526;SDS011;7865;50.918;4.510;2023-05-15T23:17:19;7.53;;;2.67;;
15526;SDS011;7865;50.918;4.510;2023-05-15T23:22:20;11.57;;;2.27;;
15526;SDS011;7865;50.918;4.510;2023-05-15T23:27:22;14.00;;;2.40;;
15526;SDS011;7865;50.918;4.510;2023-05-15T23:32:23;9.67;;;2.90;;
15526;SDS011;7865;50.918;4.510;2023-05-15T23:37:25;16.03;;;2.67;;
15526;SDS011;7865;50.918;4.510;2023-05-15T23:42:26;12.33;;;2.63;;
15526;SDS011;7865;50.918;4.510;2023-05-15T23:47:29;16.07;;;2.83;;
15526;SDS011;7865;50.918;4.510;2023-05-15T23:52:31;15.90;;;2.30;;
15526;SDS011;7865;50.918;4.510;2023-05-15T23:57:32;18.50;;;3.30;;
